sensor_id;sensor_type;location;lat;lon;timestamp;temperature;humidity
26035;DHT22;13809;48.632;11.576;2022-12-20T00:03:50;4.20;42.10
26035;DHT22;13809;48.632;11.576;2022-12-20T00:08:56;4.20;42.10
26035;DHT22;13809;48.632;11.576;2022-12-20T00:14:00;4.20;42.10
26035;DHT22;13809;48.632;11.576;2022-12-20T00:19:05;4.20;42.20
26035;DHT22;13809;48.632;11.576;2022-12-20T00:24:10;4.20;42.10
26035;DHT22;13809;48.632;11.576;2022-12-20T00:29:13;4.20;42.10
26035;DHT22;13809;48.632;11.576;2022-12-20T00:34:16;4.30;42.20
26035;DHT22;13809;48.632;11.576;2022-12-20T00:39:21;4.20;42.00
26035;DHT22;13809;48.632;11.576;2022-12-20T00:44:24;4.20;41.90
26035;DHT22;13809;48.632;11.576;2022-12-20T00:49:29;4.10;41.80
26035;DHT22;13809;48.632;11.576;2022-12-20T00:54:33;4.10;41.90
26035;DHT22;13809;48.632;11.576;2022-12-20T00:59:36;4.00;41.90
26035;DHT22;13809;48.632;11.576;2022-12-20T01:04:39;4.00;41.90
26035;DHT22;13809;48.632;11.576;2022-12-20T01:09:44;4.00;41.90
26035;DHT22;13809;48.632;11.576;2022-12-20T01:14:47;4.00;41.90
26035;DHT22;13809;48.632;11.576;2022-12-20T01:19:50;4.00;41.90
26035;DHT22;13809;48.632;11.576;2022-12-20T01:24:55;4.00;41.90
26035;DHT22;13809;48.632;11.576;2022-12-20T01:29:58;4.00;41.90
26035;DHT22;13809;48.632;11.576;2022-12-20T01:35:01;4.00;41.90
26035;DHT22;13809;48.632;11.576;2022-12-20T01:40:07;3.90;41.80
26035;DHT22;13809;48.632;11.576;2022-12-20T01:45:19;3.90;41.80
26035;DHT22;13809;48.632;11.576;2022-12-20T01:50:26;3.90;42.10
26035;DHT22;13809;48.632;11.576;2022-12-20T01:55:32;3.90;42.00
26035;DHT22;13809;48.632;11.576;2022-12-20T02:00:36;3.90;42.20
26035;DHT22;13809;48.632;11.576;2022-12-20T02:05:41;3.90;41.90
26035;DHT22;13809;48.632;11.576;2022-12-20T02:11:02;3.90;42.00
26035;DHT22;13809;48.632;11.576;2022-12-20T02:16:14;3.90;42.00
26035;DHT22;13809;48.632;11.576;2022-12-20T02:21:28;3.90;41.90
26035;DHT22;13809;48.632;11.576;2022-12-20T02:26:57;3.90;41.90
26035;DHT22;13809;48.632;11.576;2022-12-20T02:32:10;3.90;42.10
26035;DHT22;13809;48.632;11.576;2022-12-20T02:37:14;3.90;42.00
26035;DHT22;13809;48.632;11.576;2022-12-20T02:42:22;3.90;42.00
26035;DHT22;13809;48.632;11.576;2022-12-20T02:47:31;4.00;41.90
26035;DHT22;13809;48.632;11.576;2022-12-20T02:52:35;3.80;41.90
26035;DHT22;13809;48.632;11.576;2022-12-20T02:57:44;3.80;41.90
26035;DHT22;13809;48.632;11.576;2022-12-20T03:02:56;3.90;42.10
26035;DHT22;13809;48.632;11.576;2022-12-20T03:08:19;3.80;42.00
26035;DHT22;13809;48.632;11.576;2022-12-20T03:13:23;3.90;42.00
26035;DHT22;13809;48.632;11.576;2022-12-20T03:18:28;3.80;42.00
26035;DHT22;13809;48.632;11.576;2022-12-20T03:23:31;3.80;41.90
26035;DHT22;13809;48.632;11.576;2022-12-20T03:28:34;3.80;42.10
26035;DHT22;13809;48.632;11.576;2022-12-20T03:33:39;4.00;42.30
26035;DHT22;13809;48.632;11.576;2022-12-20T03:38:42;3.90;42.30
26035;DHT22;13809;48.632;11.576;2022-12-20T03:43:45;3.90;42.30
26035;DHT22;13809;48.632;11.576;2022-12-20T03:48:50;3.80;42.10
26035;DHT22;13809;48.632;11.576;2022-12-20T03:53:53;3.80;42.10
26035;DHT22;13809;48.632;11.576;2022-12-20T03:58:56;3.80;42.10
26035;DHT22;13809;48.632;11.576;2022-12-20T04:04:01;3.80;42.00
26035;DHT22;13809;48.632;11.576;2022-12-20T04:09:04;3.80;43.00
26035;DHT22;13809;48.632;11.576;2022-12-20T04:14:07;3.80;42.30
26035;DHT22;13809;48.632;11.576;2022-12-20T04:19:12;3.70;42.20
26035;DHT22;13809;48.632;11.576;2022-12-20T04:24:15;3.80;42.50
26035;DHT22;13809;48.632;11.576;2022-12-20T04:29:19;3.90;42.60
26035;DHT22;13809;48.632;11.576;2022-12-20T04:34:23;3.80;42.40
26035;DHT22;13809;48.632;11.576;2022-12-20T04:39:26;3.80;42.30
26035;DHT22;13809;48.632;11.576;2022-12-20T04:44:29;3.80;42.30
26035;DHT22;13809;48.632;11.576;2022-12-20T04:49:34;3.80;42.30
26035;DHT22;13809;48.632;11.576;2022-12-20T04:54:37;3.80;42.30
26035;DHT22;13809;48.632;11.576;2022-12-20T04:59:41;3.80;42.30
26035;DHT22;13809;48.632;11.576;2022-12-20T05:04:45;3.80;42.40
26035;DHT22;13809;48.632;11.576;2022-12-20T05:09:49;3.90;42.50
26035;DHT22;13809;48.632;11.576;2022-12-20T05:14:52;3.70;42.30
26035;DHT22;13809;48.632;11.576;2022-12-20T05:19:56;3.80;42.40
26035;DHT22;13809;48.632;11.576;2022-12-20T05:24:59;3.80;42.40
26035;DHT22;13809;48.632;11.576;2022-12-20T05:30:20;3.80;42.40
26035;DHT22;13809;48.632;11.576;2022-12-20T05:35:25;3.80;42.30
26035;DHT22;13809;48.632;11.576;2022-12-20T05:40:28;3.70;42.30
26035;DHT22;13809;48.632;11.576;2022-12-20T05:45:31;3.80;42.30
26035;DHT22;13809;48.632;11.576;2022-12-20T05:50:35;3.80;42.20
26035;DHT22;13809;48.632;11.576;2022-12-20T05:55:43;3.70;42.20
26035;DHT22;13809;48.632;11.576;2022-12-20T06:00:46;3.70;42.40
26035;DHT22;13809;48.632;11.576;2022-12-20T06:05:51;3.70;42.40
26035;DHT22;13809;48.632;11.576;2022-12-20T06:10:54;3.70;42.50
26035;DHT22;13809;48.632;11.576;2022-12-20T06:15:57;3.70;42.60
26035;DHT22;13809;48.632;11.576;2022-12-20T06:21:02;3.70;42.70
26035;DHT22;13809;48.632;11.576;2022-12-20T06:26:06;3.80;43.00
26035;DHT22;13809;48.632;11.576;2022-12-20T06:31:10;3.80;43.70
26035;DHT22;13809;48.632;11.576;2022-12-20T06:36:15;4.00;43.90
26035;DHT22;13809;48.632;11.576;2022-12-20T06:41:18;4.00;43.50
26035;DHT22;13809;48.632;11.576;2022-12-20T06:46:21;4.00;43.10
26035;DHT22;13809;48.632;11.576;2022-12-20T06:51:26;4.00;42.80
26035;DHT22;13809;48.632;11.576;2022-12-20T06:56:29;4.00;42.70
26035;DHT22;13809;48.632;11.576;2022-12-20T07:01:40;4.00;42.70
26035;DHT22;13809;48.632;11.576;2022-12-20T07:06:44;4.10;42.70
26035;DHT22;13809;48.632;11.576;2022-12-20T07:11:48;3.90;42.60
26035;DHT22;13809;48.632;11.576;2022-12-20T07:16:51;3.90;42.70
26035;DHT22;13809;48.632;11.576;2022-12-20T07:21:56;4.00;42.70
26035;DHT22;13809;48.632;11.576;2022-12-20T07:26:59;3.90;42.70
26035;DHT22;13809;48.632;11.576;2022-12-20T07:32:03;3.90;42.80
26035;DHT22;13809;48.632;11.576;2022-12-20T07:37:08;3.90;42.60
26035;DHT22;13809;48.632;11.576;2022-12-20T07:42:11;3.90;42.70
26035;DHT22;13809;48.632;11.576;2022-12-20T07:47:15;3.90;42.70
26035;DHT22;13809;48.632;11.576;2022-12-20T07:52:21;3.90;42.90
26035;DHT22;13809;48.632;11.576;2022-12-20T07:57:29;3.90;43.00
26035;DHT22;13809;48.632;11.576;2022-12-20T08:02:37;3.90;43.00
26035;DHT22;13809;48.632;11.576;2022-12-20T08:07:45;4.00;43.00
26035;DHT22;13809;48.632;11.576;2022-12-20T08:12:56;3.90;43.10
26035;DHT22;13809;48.632;11.576;2022-12-20T08:18:00;3.90;43.00
26035;DHT22;13809;48.632;11.576;2022-12-20T08:23:04;4.00;43.00
26035;DHT22;13809;48.632;11.576;2022-12-20T08:28:08;4.00;43.10
26035;DHT22;13809;48.632;11.576;2022-12-20T08:33:11;4.00;43.10
26035;DHT22;13809;48.632;11.576;2022-12-20T08:38:16;4.10;43.20
26035;DHT22;13809;48.632;11.576;2022-12-20T08:43:19;4.20;43.30
26035;DHT22;13809;48.632;11.576;2022-12-20T08:48:22;4.20;43.20
26035;DHT22;13809;48.632;11.576;2022-12-20T08:53:27;4.20;43.20
26035;DHT22;13809;48.632;11.576;2022-12-20T08:58:31;4.20;43.30
26035;DHT22;13809;48.632;11.576;2022-12-20T09:03:35;4.30;43.20
26035;DHT22;13809;48.632;11.576;2022-12-20T09:08:40;4.30;43.30
26035;DHT22;13809;48.632;11.576;2022-12-20T09:13:45;4.30;43.30
26035;DHT22;13809;48.632;11.576;2022-12-20T09:18:49;4.30;43.30
26035;DHT22;13809;48.632;11.576;2022-12-20T09:23:54;4.30;43.30
26035;DHT22;13809;48.632;11.576;2022-12-20T09:28:58;4.40;43.50
26035;DHT22;13809;48.632;11.576;2022-12-20T09:34:02;4.50;43.50
26035;DHT22;13809;48.632;11.576;2022-12-20T09:39:09;4.50;43.40
26035;DHT22;13809;48.632;11.576;2022-12-20T09:44:16;4.60;43.70
26035;DHT22;13809;48.632;11.576;2022-12-20T09:49:26;4.60;43.70
26035;DHT22;13809;48.632;11.576;2022-12-20T09:54:38;4.70;43.80
26035;DHT22;13809;48.632;11.576;2022-12-20T09:59:43;4.80;44.20
26035;DHT22;13809;48.632;11.576;2022-12-20T10:04:51;4.90;44.00
26035;DHT22;13809;48.632;11.576;2022-12-20T10:10:20;4.90;44.00
26035;DHT22;13809;48.632;11.576;2022-12-20T10:15:30;5.00;44.40
26035;DHT22;13809;48.632;11.576;2022-12-20T10:20:43;5.10;44.20
26035;DHT22;13809;48.632;11.576;2022-12-20T10:25:52;5.20;44.20
26035;DHT22;13809;48.632;11.576;2022-12-20T10:31:01;5.30;44.10
26035;DHT22;13809;48.632;11.576;2022-12-20T10:36:20;5.40;44.10
26035;DHT22;13809;48.632;11.576;2022-12-20T10:41:26;5.40;44.20
26035;DHT22;13809;48.632;11.576;2022-12-20T10:46:38;5.50;44.00
26035;DHT22;13809;48.632;11.576;2022-12-20T10:51:50;5.60;44.10
26035;DHT22;13809;48.632;11.576;2022-12-20T10:56:57;5.60;44.00
26035;DHT22;13809;48.632;11.576;2022-12-20T11:02:01;5.60;43.70
26035;DHT22;13809;48.632;11.576;2022-12-20T11:07:27;5.70;44.30
26035;DHT22;13809;48.632;11.576;2022-12-20T11:12:31;5.70;44.30
26035;DHT22;13809;48.632;11.576;2022-12-20T11:17:36;5.80;43.90
26035;DHT22;13809;48.632;11.576;2022-12-20T11:22:47;5.80;43.70
26035;DHT22;13809;48.632;11.576;2022-12-20T11:28:07;5.80;43.60
26035;DHT22;13809;48.632;11.576;2022-12-20T11:38:52;5.90;44.00
26035;DHT22;13809;48.632;11.576;2022-12-20T11:44:08;5.90;43.50
26035;DHT22;13809;48.632;11.576;2022-12-20T11:49:53;6.00;43.50
26035;DHT22;13809;48.632;11.576;2022-12-20T11:55:08;6.00;43.50
26035;DHT22;13809;48.632;11.576;2022-12-20T12:00:19;6.00;43.50
26035;DHT22;13809;48.632;11.576;2022-12-20T12:05:27;6.00;43.60
26035;DHT22;13809;48.632;11.576;2022-12-20T12:10:34;6.00;43.50
26035;DHT22;13809;48.632;11.576;2022-12-20T12:15:47;6.00;43.50
26035;DHT22;13809;48.632;11.576;2022-12-20T12:20:56;6.10;43.70
26035;DHT22;13809;48.632;11.576;2022-12-20T12:26:12;6.10;43.60
26035;DHT22;13809;48.632;11.576;2022-12-20T12:31:25;6.20;43.70
26035;DHT22;13809;48.632;11.576;2022-12-20T12:36:41;6.20;43.70
26035;DHT22;13809;48.632;11.576;2022-12-20T12:42:12;6.30;43.80
26035;DHT22;13809;48.632;11.576;2022-12-20T12:47:22;6.30;46.00
26035;DHT22;13809;48.632;11.576;2022-12-20T12:52:45;6.40;44.60
26035;DHT22;13809;48.632;11.576;2022-12-20T12:57:55;6.50;43.90
26035;DHT22;13809;48.632;11.576;2022-12-20T13:03:04;6.60;44.00
26035;DHT22;13809;48.632;11.576;2022-12-20T13:08:16;6.60;43.70
26035;DHT22;13809;48.632;11.576;2022-12-20T13:13:21;6.60;43.70
26035;DHT22;13809;48.632;11.576;2022-12-20T13:18:27;6.70;43.70
26035;DHT22;13809;48.632;11.576;2022-12-20T13:23:30;6.70;43.60
26035;DHT22;13809;48.632;11.576;2022-12-20T13:28:43;6.70;43.50
26035;DHT22;13809;48.632;11.576;2022-12-20T13:33:49;6.70;43.60
26035;DHT22;13809;48.632;11.576;2022-12-20T13:38:58;6.70;43.70
26035;DHT22;13809;48.632;11.576;2022-12-20T13:49:45;6.80;47.80
26035;DHT22;13809;48.632;11.576;2022-12-20T13:54:51;7.10;48.20
26035;DHT22;13809;48.632;11.576;2022-12-20T13:59:57;7.50;45.90
26035;DHT22;13809;48.632;11.576;2022-12-20T14:05:16;7.70;45.00
26035;DHT22;13809;48.632;11.576;2022-12-20T14:10:23;7.80;44.00
26035;DHT22;13809;48.632;11.576;2022-12-20T14:15:29;7.70;43.80
26035;DHT22;13809;48.632;11.576;2022-12-20T14:20:34;7.70;43.60
26035;DHT22;13809;48.632;11.576;2022-12-20T14:25:43;7.70;43.50
26035;DHT22;13809;48.632;11.576;2022-12-20T14:30:46;7.60;43.40
26035;DHT22;13809;48.632;11.576;2022-12-20T14:35:51;7.60;44.50
26035;DHT22;13809;48.632;11.576;2022-12-20T14:40:54;7.70;44.10
26035;DHT22;13809;48.632;11.576;2022-12-20T14:46:14;7.70;43.80
26035;DHT22;13809;48.632;11.576;2022-12-20T14:51:20;7.60;43.30
26035;DHT22;13809;48.632;11.576;2022-12-20T14:56:23;7.50;43.20
26035;DHT22;13809;48.632;11.576;2022-12-20T15:01:33;7.40;43.30
26035;DHT22;13809;48.632;11.576;2022-12-20T15:06:45;7.40;43.50
26035;DHT22;13809;48.632;11.576;2022-12-20T15:11:50;7.30;43.80
26035;DHT22;13809;48.632;11.576;2022-12-20T15:16:54;7.40;44.10
26035;DHT22;13809;48.632;11.576;2022-12-20T15:21:59;7.40;44.00
26035;DHT22;13809;48.632;11.576;2022-12-20T15:27:02;7.40;43.70
26035;DHT22;13809;48.632;11.576;2022-12-20T15:32:10;7.30;43.50
26035;DHT22;13809;48.632;11.576;2022-12-20T15:37:17;7.30;43.70
26035;DHT22;13809;48.632;11.576;2022-12-20T15:42:22;7.20;43.60
26035;DHT22;13809;48.632;11.576;2022-12-20T15:47:25;7.20;43.60
26035;DHT22;13809;48.632;11.576;2022-12-20T15:52:30;7.20;43.30
26035;DHT22;13809;48.632;11.576;2022-12-20T15:57:34;7.10;43.30
26035;DHT22;13809;48.632;11.576;2022-12-20T16:02:37;7.10;43.30
26035;DHT22;13809;48.632;11.576;2022-12-20T16:07:42;7.00;43.40
26035;DHT22;13809;48.632;11.576;2022-12-20T16:12:45;7.00;43.40
26035;DHT22;13809;48.632;11.576;2022-12-20T16:17:49;7.00;43.40
26035;DHT22;13809;48.632;11.576;2022-12-20T16:22:54;6.90;43.40
26035;DHT22;13809;48.632;11.576;2022-12-20T16:27:57;6.90;43.50
26035;DHT22;13809;48.632;11.576;2022-12-20T16:33:01;6.80;43.50
26035;DHT22;13809;48.632;11.576;2022-12-20T16:38:10;6.80;43.70
26035;DHT22;13809;48.632;11.576;2022-12-20T16:43:14;6.80;43.70
26035;DHT22;13809;48.632;11.576;2022-12-20T16:48:19;6.80;43.60
26035;DHT22;13809;48.632;11.576;2022-12-20T16:53:23;6.80;43.70
26035;DHT22;13809;48.632;11.576;2022-12-20T16:58:26;6.80;43.70
26035;DHT22;13809;48.632;11.576;2022-12-20T17:03:50;6.80;43.70
26035;DHT22;13809;48.632;11.576;2022-12-20T17:08:55;6.70;43.90
26035;DHT22;13809;48.632;11.576;2022-12-20T17:14:16;6.70;44.10
26035;DHT22;13809;48.632;11.576;2022-12-20T17:19:20;6.70;44.10
26035;DHT22;13809;48.632;11.576;2022-12-20T17:24:25;6.70;44.10
26035;DHT22;13809;48.632;11.576;2022-12-20T17:29:28;6.70;44.10
26035;DHT22;13809;48.632;11.576;2022-12-20T17:34:31;6.70;44.10
26035;DHT22;13809;48.632;11.576;2022-12-20T17:39:36;6.70;44.10
26035;DHT22;13809;48.632;11.576;2022-12-20T17:44:40;6.70;44.10
26035;DHT22;13809;48.632;11.576;2022-12-20T17:49:43;6.70;44.10
26035;DHT22;13809;48.632;11.576;2022-12-20T17:54:47;6.80;44.20
26035;DHT22;13809;48.632;11.576;2022-12-20T17:59:51;6.80;45.70
26035;DHT22;13809;48.632;11.576;2022-12-20T18:04:54;6.90;45.40
26035;DHT22;13809;48.632;11.576;2022-12-20T18:09:58;7.00;45.60
26035;DHT22;13809;48.632;11.576;2022-12-20T18:15:02;7.10;44.40
26035;DHT22;13809;48.632;11.576;2022-12-20T18:20:09;7.10;44.40
26035;DHT22;13809;48.632;11.576;2022-12-20T18:25:13;7.10;43.90
26035;DHT22;13809;48.632;11.576;2022-12-20T18:30:19;7.00;43.60
26035;DHT22;13809;48.632;11.576;2022-12-20T18:35:22;7.00;43.80
26035;DHT22;13809;48.632;11.576;2022-12-20T18:40:26;6.90;44.00
26035;DHT22;13809;48.632;11.576;2022-12-20T18:45:29;6.90;44.10
26035;DHT22;13809;48.632;11.576;2022-12-20T18:50:35;6.90;44.10
26035;DHT22;13809;48.632;11.576;2022-12-20T18:55:40;6.90;44.00
26035;DHT22;13809;48.632;11.576;2022-12-20T19:00:43;6.90;44.00
26035;DHT22;13809;48.632;11.576;2022-12-20T19:05:50;6.90;43.90
26035;DHT22;13809;48.632;11.576;2022-12-20T19:10:59;6.80;44.00
26035;DHT22;13809;48.632;11.576;2022-12-20T19:16:04;6.80;44.20
26035;DHT22;13809;48.632;11.576;2022-12-20T19:21:10;6.80;44.20
26035;DHT22;13809;48.632;11.576;2022-12-20T19:26:16;6.80;44.10
26035;DHT22;13809;48.632;11.576;2022-12-20T19:31:21;6.80;44.20
26035;DHT22;13809;48.632;11.576;2022-12-20T19:36:28;6.80;43.90
26035;DHT22;13809;48.632;11.576;2022-12-20T19:41:34;6.70;43.80
26035;DHT22;13809;48.632;11.576;2022-12-20T19:46:37;6.70;43.80
26035;DHT22;13809;48.632;11.576;2022-12-20T19:51:41;6.60;43.90
26035;DHT22;13809;48.632;11.576;2022-12-20T19:56:45;6.50;43.90
26035;DHT22;13809;48.632;11.576;2022-12-20T20:01:48;6.50;44.00
26035;DHT22;13809;48.632;11.576;2022-12-20T20:06:52;6.40;43.90
26035;DHT22;13809;48.632;11.576;2022-12-20T20:11:58;6.40;43.90
26035;DHT22;13809;48.632;11.576;2022-12-20T20:17:01;6.40;44.10
26035;DHT22;13809;48.632;11.576;2022-12-20T20:22:05;6.40;44.80
26035;DHT22;13809;48.632;11.576;2022-12-20T20:27:09;6.50;44.10
26035;DHT22;13809;48.632;11.576;2022-12-20T20:32:13;6.50;44.20
26035;DHT22;13809;48.632;11.576;2022-12-20T20:37:16;6.60;44.20
26035;DHT22;13809;48.632;11.576;2022-12-20T20:42:20;6.60;44.00
26035;DHT22;13809;48.632;11.576;2022-12-20T20:47:24;6.60;44.00
26035;DHT22;13809;48.632;11.576;2022-12-20T20:52:27;6.70;44.10
26035;DHT22;13809;48.632;11.576;2022-12-20T20:57:32;6.70;44.10
26035;DHT22;13809;48.632;11.576;2022-12-20T21:02:35;6.70;44.10
26035;DHT22;13809;48.632;11.576;2022-12-20T21:07:40;6.70;44.10
26035;DHT22;13809;48.632;11.576;2022-12-20T21:12:44;6.70;44.10
26035;DHT22;13809;48.632;11.576;2022-12-20T21:17:47;6.70;44.10
26035;DHT22;13809;48.632;11.576;2022-12-20T21:22:51;6.70;44.10
26035;DHT22;13809;48.632;11.576;2022-12-20T21:27:56;6.70;44.10
26035;DHT22;13809;48.632;11.576;2022-12-20T21:32:59;6.70;44.10
26035;DHT22;13809;48.632;11.576;2022-12-20T21:38:02;6.70;44.10
26035;DHT22;13809;48.632;11.576;2022-12-20T21:43:07;6.70;44.10
26035;DHT22;13809;48.632;11.576;2022-12-20T21:48:10;6.70;44.10
26035;DHT22;13809;48.632;11.576;2022-12-20T21:53:14;6.70;44.10
26035;DHT22;13809;48.632;11.576;2022-12-20T21:58:22;6.70;44.10
26035;DHT22;13809;48.632;11.576;2022-12-20T22:03:25;6.70;44.10
26035;DHT22;13809;48.632;11.576;2022-12-20T22:08:30;6.70;44.10
26035;DHT22;13809;48.632;11.576;2022-12-20T22:13:35;6.70;44.10
26035;DHT22;13809;48.632;11.576;2022-12-20T22:18:43;6.70;44.10
26035;DHT22;13809;48.632;11.576;2022-12-20T22:23:49;6.70;44.10
26035;DHT22;13809;48.632;11.576;2022-12-20T22:28:55;6.70;44.10
26035;DHT22;13809;48.632;11.576;2022-12-20T22:33:59;6.70;44.10
26035;DHT22;13809;48.632;11.576;2022-12-20T22:39:03;6.70;44.10
26035;DHT22;13809;48.632;11.576;2022-12-20T22:44:07;6.60;44.00
26035;DHT22;13809;48.632;11.576;2022-12-20T22:49:15;6.60;44.10
26035;DHT22;13809;48.632;11.576;2022-12-20T22:54:18;6.60;44.30
26035;DHT22;13809;48.632;11.576;2022-12-20T22:59:23;6.60;44.00
26035;DHT22;13809;48.632;11.576;2022-12-20T23:04:26;6.60;44.10
26035;DHT22;13809;48.632;11.576;2022-12-20T23:09:29;6.60;44.00
26035;DHT22;13809;48.632;11.576;2022-12-20T23:14:33;6.60;44.00
26035;DHT22;13809;48.632;11.576;2022-12-20T23:20:06;6.60;44.10
26035;DHT22;13809;48.632;11.576;2022-12-20T23:25:26;6.60;44.00
26035;DHT22;13809;48.632;11.576;2022-12-20T23:30:31;6.60;44.00
26035;DHT22;13809;48.632;11.576;2022-12-20T23:35:34;6.60;44.00
26035;DHT22;13809;48.632;11.576;2022-12-20T23:40:39;6.60;44.00
26035;DHT22;13809;48.632;11.576;2022-12-20T23:45:44;6.50;44.00
26035;DHT22;13809;48.632;11.576;2022-12-20T23:50:54;6.50;43.90
26035;DHT22;13809;48.632;11.576;2022-12-20T23:56:00;6.50;43.90
